Time;durP1;ratioP1;P1;durP2;ratioP2;P2;SDS_P1;SDS_P2;PMS_P1;PMS_P2;Temp;Humidity;BMP_temperature;BMP_pressure;BME280_temperature;BME280_humidity;BME280_pressure;Samples;Min_cycle;Max_cycle;Signal;HPM_P1;HPM_P2
2023/11/04 00:01:20;;;;;;;5.40;3.92;;;13.00;99.90;;;;;;5116858;28;20566;-78
2023/11/04 00:03:47;;;;;;;7.47;3.40;;;13.00;99.90;;;;;;5114835;28;20227;-84
2023/11/04 00:06:15;;;;;;;3.35;2.83;;;13.00;99.90;;;;;;5116232;28;20469;-84
2023/11/04 00:08:42;;;;;;;5.35;2.75;;;13.00;99.90;;;;;;5116325;28;20288;-78
2023/11/04 00:11:09;;;;;;;6.13;3.80;;;13.00;99.90;;;;;;5117118;28;20222;-79
2023/11/04 00:13:37;;;;;;;6.85;4.45;;;13.00;99.90;;;;;;5115460;28;20321;-79
2023/11/04 00:16:08;;;;;;;4.43;2.65;;;12.90;99.90;;;;;;5115875;28;20272;-82
2023/11/04 00:18:36;;;;;;;7.47;3.60;;;12.90;99.90;;;;;;5113344;28;20223;-78
2023/11/04 00:21:07;;;;;;;7.22;5.53;;;12.90;99.90;;;;;;5095473;28;20223;-79
2023/11/04 00:23:34;;;;;;;11.38;3.60;;;12.90;99.90;;;;;;5095004;28;20321;-80
2023/11/04 00:26:01;;;;;;;3.97;3.10;;;12.90;99.90;;;;;;5095217;28;20246;-79
2023/11/04 00:28:28;;;;;;;4.22;2.60;;;12.80;99.90;;;;;;5093999;28;20306;-79
2023/11/04 00:31:02;;;;;;;7.22;3.33;;;12.90;99.90;;;;;;5095307;28;20223;-83
2023/11/04 00:33:32;;;;;;;5.85;2.70;;;12.80;99.90;;;;;;5095973;28;20229;-83
2023/11/04 00:36:01;;;;;;;7.25;4.72;;;12.80;99.90;;;;;;5095003;28;20242;-83
2023/11/04 00:38:59;;;;;;;4.63;2.85;;;12.70;99.90;;;;;;5101374;28;20218;-78
2023/11/04 00:41:26;;;;;;;8.38;2.42;;;12.70;99.90;;;;;;5100693;28;20234;-79
2023/11/04 00:43:53;;;;;;;8.65;3.95;;;12.70;99.90;;;;;;5115214;28;20246;-79
2023/11/04 00:46:21;;;;;;;4.15;3.15;;;12.70;99.90;;;;;;5115569;28;20266;-82
2023/11/04 00:48:48;;;;;;;13.73;4.07;;;12.70;99.90;;;;;;5115220;28;20740;-78
2023/11/04 00:51:16;;;;;;;9.98;5.05;;;12.70;99.90;;;;;;5113000;28;20222;-83
2023/11/04 00:53:43;;;;;;;6.45;3.13;;;12.60;99.90;;;;;;5114933;28;20293;-83
2023/11/04 00:56:10;;;;;;;4.20;2.95;;;12.60;99.90;;;;;;5115413;28;20253;-83
2023/11/04 00:58:37;;;;;;;3.28;2.25;;;12.60;99.90;;;;;;5114803;28;20226;-79
2023/11/04 01:01:07;;;;;;;5.25;2.42;;;12.60;99.90;;;;;;5114769;28;20557;-83
2023/11/04 01:03:34;;;;;;;6.50;2.20;;;12.60;99.90;;;;;;5114573;28;20267;-78
2023/11/04 01:06:01;;;;;;;4.20;1.83;;;12.60;99.90;;;;;;5114388;28;20246;-83
2023/11/04 01:08:29;;;;;;;6.28;4.03;;;12.60;99.90;;;;;;5113943;28;20231;-83
2023/11/04 01:10:57;;;;;;;7.47;4.55;;;12.50;99.90;;;;;;5108893;28;20233;-80
2023/11/04 01:13:24;;;;;;;8.75;6.13;;;12.50;99.90;;;;;;5105797;28;20233;-84
2023/11/04 01:15:52;;;;;;;10.57;7.68;;;12.50;99.90;;;;;;5115055;28;20275;-84
2023/11/04 01:18:20;;;;;;;10.30;4.95;;;12.50;99.90;;;;;;5115030;28;20231;-83
2023/11/04 01:20:49;;;;;;;3.42;2.58;;;12.50;99.90;;;;;;5113389;28;20218;-79
2023/11/04 01:23:19;;;;;;;8.98;7.18;;;12.50;99.90;;;;;;5114867;28;20222;-83
2023/11/04 01:25:48;;;;;;;5.53;3.40;;;12.50;99.90;;;;;;5114318;28;20246;-84
2023/11/04 01:28:15;;;;;;;6.30;3.40;;;12.50;99.90;;;;;;5114890;28;20470;-79
2023/11/04 01:30:42;;;;;;;6.28;1.90;;;12.50;99.90;;;;;;5112928;28;20219;-84
2023/11/04 01:33:13;;;;;;;5.50;3.50;;;12.40;99.90;;;;;;5114706;28;20226;-79
2023/11/04 01:35:43;;;;;;;6.78;3.25;;;12.40;99.90;;;;;;5113250;28;20240;-80
2023/11/04 01:38:19;;;;;;;7.05;2.40;;;12.40;99.90;;;;;;5114202;28;20210;-80
2023/11/04 01:40:51;;;;;;;10.27;4.13;;;12.40;99.90;;;;;;5114074;28;20321;-84
2023/11/04 01:43:25;;;;;;;10.40;8.57;;;12.40;99.90;;;;;;5115039;28;20601;-80
2023/11/04 01:46:15;;;;;;;10.60;7.20;;;12.30;99.90;;;;;;5114230;28;20302;-80
2023/11/04 01:48:42;;;;;;;5.97;3.25;;;12.30;99.90;;;;;;5114178;28;20219;-84
2023/11/04 01:51:14;;;;;;;5.88;3.10;;;12.30;99.90;;;;;;5114735;28;20288;-80
2023/11/04 01:53:44;;;;;;;13.40;9.95;;;12.30;99.90;;;;;;5112690;28;20222;-84
2023/11/04 01:56:14;;;;;;;9.32;6.43;;;12.20;99.90;;;;;;5104102;28;20227;-80
2023/11/04 01:58:45;;;;;;;6.78;3.90;;;12.20;99.90;;;;;;5093633;28;20223;-84
2023/11/04 02:01:13;;;;;;;7.85;4.00;;;12.10;99.90;;;;;;5094549;28;20232;-81
2023/11/04 02:03:41;;;;;;;5.60;3.30;;;12.20;99.90;;;;;;5096948;28;20587;-81
2023/11/04 02:06:08;;;;;;;5.85;3.30;;;12.20;99.90;;;;;;5113773;27;20651;-84
2023/11/04 02:08:36;;;;;;;8.50;3.53;;;12.20;99.90;;;;;;5136046;27;20286;-84
2023/11/04 02:11:03;;;;;;;10.38;3.90;;;12.10;99.90;;;;;;5131204;27;20727;-83
2023/11/04 02:13:33;;;;;;;10.32;3.97;;;12.00;99.90;;;;;;5119237;28;20310;-84
2023/11/04 02:16:00;;;;;;;9.60;4.30;;;12.00;99.90;;;;;;5117651;28;20246;-84
2023/11/04 02:18:27;;;;;;;6.13;3.30;;;12.00;99.90;;;;;;5118380;28;20227;-83
2023/11/04 02:20:59;;;;;;;4.22;2.85;;;11.90;99.90;;;;;;5117452;28;20246;-83
2023/11/04 02:23:28;;;;;;;12.77;2.90;;;11.90;99.90;;;;;;5117679;28;20279;-83
2023/11/04 02:25:55;;;;;;;5.35;2.58;;;11.80;99.90;;;;;;5117183;28;20237;-79
2023/11/04 02:28:23;;;;;;;6.68;3.40;;;11.80;99.90;;;;;;5117813;28;20684;-80
2023/11/04 02:30:50;;;;;;;5.70;4.60;;;11.80;99.90;;;;;;5116946;28;20275;-79
2023/11/04 02:33:17;;;;;;;4.40;2.78;;;11.80;99.90;;;;;;5117336;28;20219;-80
2023/11/04 02:35:46;;;;;;;6.68;3.03;;;11.80;99.90;;;;;;5116352;28;20231;-80
2023/11/04 02:38:14;;;;;;;3.90;2.83;;;11.70;99.90;;;;;;5116957;28;20314;-80
2023/11/04 02:40:50;;;;;;;3.00;2.33;;;11.70;99.90;;;;;;5116835;28;20610;-80
2023/11/04 02:43:18;;;;;;;4.90;3.20;;;11.60;99.90;;;;;;5106678;28;20222;-84
2023/11/04 02:45:46;;;;;;;5.70;3.53;;;11.60;99.90;;;;;;5117122;28;20258;-84
2023/11/04 02:48:14;;;;;;;4.63;2.70;;;11.50;99.90;;;;;;5118329;28;20621;-83
2023/11/04 02:50:41;;;;;;;3.88;2.72;;;11.50;99.90;;;;;;5117860;28;20219;-84
2023/11/04 02:53:10;;;;;;;4.65;2.53;;;11.50;99.90;;;;;;5116697;28;20298;-78
2023/11/04 02:55:40;;;;;;;7.22;4.63;;;11.40;99.90;;;;;;5116624;28;20279;-79
2023/11/04 02:58:07;;;;;;;11.30;3.15;;;11.30;99.90;;;;;;5116975;28;20246;-79
2023/11/04 03:00:35;;;;;;;5.38;3.55;;;11.30;99.90;;;;;;5116959;28;20309;-84
2023/11/04 03:03:02;;;;;;;8.07;3.50;;;11.20;99.90;;;;;;5107801;28;20219;-80
2023/11/04 03:05:29;;;;;;;5.00;2.70;;;11.20;99.90;;;;;;5117938;28;20230;-84
2023/11/04 03:07:56;;;;;;;10.65;3.83;;;11.10;99.90;;;;;;5117904;28;20572;-79
2023/11/04 03:10:23;;;;;;;9.50;4.78;;;11.10;99.90;;;;;;5116449;28;20718;-83
2023/11/04 03:12:52;;;;;;;7.15;2.40;;;11.10;99.90;;;;;;5114666;28;20218;-80
2023/11/04 03:15:20;;;;;;;7.72;4.28;;;11.00;99.90;;;;;;5116593;28;20234;-79
2023/11/04 03:17:47;;;;;;;4.70;3.60;;;11.00;99.90;;;;;;5117397;28;20223;-80
2023/11/04 03:20:15;;;;;;;8.02;4.07;;;11.00;99.90;;;;;;5116591;28;20222;-80
2023/11/04 03:22:46;;;;;;;13.70;7.15;;;10.90;99.90;;;;;;5117032;28;20239;-80
2023/11/04 03:25:15;;;;;;;10.38;5.47;;;11.00;99.90;;;;;;5106000;28;20223;-79
2023/11/04 03:27:42;;;;;;;4.60;2.83;;;11.00;99.90;;;;;;5116225;28;20242;-79
2023/11/04 03:30:11;;;;;;;4.13;2.53;;;10.90;99.90;;;;;;5116112;28;20223;-84
2023/11/04 03:32:38;;;;;;;10.00;3.60;;;10.90;99.90;;;;;;5117994;28;20310;-84
2023/11/04 03:35:09;;;;;;;6.78;3.55;;;10.90;99.90;;;;;;5118029;28;20276;-83
2023/11/04 03:37:36;;;;;;;17.00;4.20;;;10.90;99.90;;;;;;5118220;28;20234;-83
2023/11/04 03:40:04;;;;;;;9.27;5.63;;;10.90;99.90;;;;;;5096706;28;20677;-79
2023/11/04 03:42:31;;;;;;;5.55;3.15;;;10.90;99.90;;;;;;5097015;28;20215;-79
2023/11/04 03:44:58;;;;;;;7.00;3.80;;;10.80;99.90;;;;;;5097107;28;20223;-83
2023/11/04 03:47:29;;;;;;;10.98;2.70;;;10.80;99.90;;;;;;5097170;28;20253;-83
2023/11/04 03:49:56;;;;;;;7.90;4.40;;;10.70;99.90;;;;;;5097187;28;20688;-82
2023/11/04 03:52:23;;;;;;;4.93;3.42;;;10.70;99.90;;;;;;5097992;28;20251;-82
2023/11/04 03:54:55;;;;;;;8.60;4.30;;;10.60;99.90;;;;;;5097105;28;20231;-79
2023/11/04 03:57:34;;;;;;;6.22;4.90;;;10.70;99.90;;;;;;5116136;28;20230;-83
2023/11/04 04:00:02;;;;;;;7.35;4.38;;;10.70;99.90;;;;;;5096342;28;20215;-83
2023/11/04 04:02:31;;;;;;;3.10;2.67;;;10.70;99.90;;;;;;5106783;28;20544;-83
2023/11/04 04:04:58;;;;;;;8.27;3.45;;;10.70;99.90;;;;;;5096632;28;20249;-83
2023/11/04 04:07:28;;;;;;;7.93;2.72;;;10.70;99.90;;;;;;5095267;28;20677;-83
2023/11/04 04:09:58;;;;;;;9.02;3.30;;;10.70;99.90;;;;;;5096287;28;20241;-80
2023/11/04 04:12:26;;;;;;;6.00;2.55;;;10.60;99.90;;;;;;5094675;28;20223;-80
2023/11/04 04:14:53;;;;;;;6.93;3.72;;;10.60;99.90;;;;;;5095769;28;20267;-83
2023/11/04 04:17:20;;;;;;;4.60;2.88;;;10.60;99.90;;;;;;5095090;28;20608;-80
2023/11/04 04:19:49;;;;;;;13.45;6.90;;;10.50;99.90;;;;;;5107474;28;20223;-79
2023/11/04 04:22:18;;;;;;;10.98;4.55;;;10.50;99.90;;;;;;5115892;28;20226;-79
2023/11/04 04:24:45;;;;;;;3.47;2.45;;;10.50;99.90;;;;;;5115776;28;20261;-84
2023/11/04 04:27:12;;;;;;;6.93;2.40;;;10.50;99.90;;;;;;5115454;28;20242;-84
2023/11/04 04:29:39;;;;;;;3.88;2.40;;;10.40;99.90;;;;;;5115720;28;20301;-79
2023/11/04 04:32:06;;;;;;;5.82;2.90;;;10.30;99.90;;;;;;5115515;28;20249;-79
2023/11/04 04:34:33;;;;;;;3.45;2.15;;;10.30;99.90;;;;;;5114914;28;20239;-83
2023/11/04 04:37:02;;;;;;;5.60;2.85;;;10.40;99.90;;;;;;5116095;28;20218;-80
2023/11/04 04:39:32;;;;;;;13.43;3.65;;;10.30;99.90;;;;;;5114771;28;20588;-83
2023/11/04 04:41:59;;;;;;;6.00;2.75;;;10.30;99.90;;;;;;5115540;28;20222;-80
2023/11/04 04:44:26;;;;;;;6.72;3.95;;;10.30;99.90;;;;;;5114173;28;20305;-80
2023/11/04 04:46:53;;;;;;;4.22;2.03;;;10.30;99.90;;;;;;5104431;28;20637;-84
2023/11/04 04:49:21;;;;;;;11.07;2.67;;;10.30;99.90;;;;;;5115091;28;20226;-83
2023/11/04 04:51:48;;;;;;;4.07;2.35;;;10.20;99.90;;;;;;5115123;28;20218;-80
2023/11/04 04:54:16;;;;;;;6.75;2.30;;;10.30;99.90;;;;;;5114448;28;20288;-85
2023/11/04 04:56:43;;;;;;;6.32;4.15;;;10.20;99.90;;;;;;5115524;28;20215;-83
2023/11/04 04:59:10;;;;;;;8.73;4.40;;;10.10;99.90;;;;;;5115899;28;20234;-80
2023/11/04 05:01:38;;;;;;;11.23;4.40;;;10.10;99.90;;;;;;5114319;28;20589;-79
2023/11/04 05:04:11;;;;;;;4.75;2.53;;;10.10;99.90;;;;;;5114163;28;20219;-79
2023/11/04 05:06:37;;;;;;;7.38;2.05;;;10.10;99.90;;;;;;5114485;28;20230;-81
2023/11/04 05:09:04;;;;;;;5.97;2.75;;;10.10;99.90;;;;;;5115785;28;20310;-78
2023/11/04 05:11:33;;;;;;;4.90;3.15;;;10.10;99.90;;;;;;5115045;28;20690;-84
2023/11/04 05:14:03;;;;;;;8.82;2.60;;;10.10;99.90;;;;;;5115764;28;20218;-83
2023/11/04 05:16:30;;;;;;;8.27;2.45;;;10.10;99.90;;;;;;5114109;28;20238;-83
2023/11/04 05:18:57;;;;;;;4.78;2.60;;;10.00;99.90;;;;;;5114451;28;20223;-83
2023/11/04 05:21:25;;;;;;;4.68;2.10;;;10.00;99.90;;;;;;5114612;28;20747;-82
2023/11/04 05:23:52;;;;;;;8.15;3.17;;;10.00;99.90;;;;;;5105801;28;20214;-83
2023/11/04 05:26:19;;;;;;;4.80;2.30;;;10.00;99.90;;;;;;5114506;28;20241;-82
2023/11/04 05:28:47;;;;;;;4.82;2.33;;;10.00;99.90;;;;;;5115198;28;20400;-79
2023/11/04 05:31:14;;;;;;;5.28;2.47;;;10.00;99.90;;;;;;5114859;28;20218;-83
2023/11/04 05:33:49;;;;;;;7.63;4.28;;;10.00;99.90;;;;;;5114530;28;20218;-83
2023/11/04 05:36:18;;;;;;;5.70;2.53;;;10.10;99.90;;;;;;5113896;28;20237;-83
2023/11/04 05:38:45;;;;;;;6.85;2.67;;;10.10;99.90;;;;;;5118638;28;20211;-83
2023/11/04 05:41:11;;;;;;;9.20;5.15;;;10.10;99.90;;;;;;5118075;28;20229;-79
2023/11/04 05:43:39;;;;;;;5.30;1.85;;;10.10;99.90;;;;;;5118045;28;20283;-83
2023/11/04 05:46:09;;;;;;;4.95;2.30;;;10.00;99.90;;;;;;5118751;28;20618;-83
2023/11/04 05:48:37;;;;;;;11.50;4.13;;;10.10;99.90;;;;;;5118624;28;20228;-83
2023/11/04 05:51:06;;;;;;;2.78;2.15;;;10.10;99.90;;;;;;5119019;28;20222;-80
2023/11/04 05:53:33;;;;;;;5.40;2.08;;;10.00;99.90;;;;;;5117969;28;20227;-84
2023/11/04 05:56:03;;;;;;;5.45;2.95;;;10.10;99.90;;;;;;5119594;28;20621;-84
2023/11/04 05:58:36;;;;;;;4.85;2.55;;;10.10;99.90;;;;;;5119545;28;20353;-83
2023/11/04 06:01:05;;;;;;;3.25;2.25;;;10.00;99.90;;;;;;5118777;28;20237;-83
2023/11/04 06:03:33;;;;;;;3.95;1.98;;;10.00;99.90;;;;;;5117957;28;20279;-84
2023/11/04 06:06:01;;;;;;;4.68;2.88;;;10.00;99.90;;;;;;5118912;28;20325;-83
2023/11/04 06:08:27;;;;;;;3.78;2.03;;;10.00;99.90;;;;;;5117702;28;20226;-83
2023/11/04 06:10:54;;;;;;;5.07;3.65;;;10.00;99.90;;;;;;5119420;28;20295;-84
2023/11/04 06:13:21;;;;;;;4.65;3.00;;;10.00;99.90;;;;;;5118263;28;20733;-80
2023/11/04 06:15:48;;;;;;;6.03;2.80;;;10.00;99.90;;;;;;5116847;28;20257;-83
2023/11/04 06:18:16;;;;;;;6.38;2.90;;;10.00;99.90;;;;;;5118394;28;20219;-80
2023/11/04 06:20:44;;;;;;;6.15;2.50;;;10.10;99.90;;;;;;5116882;28;20227;-80
2023/11/04 06:23:12;;;;;;;9.98;2.92;;;10.10;99.90;;;;;;5118254;28;20676;-83
2023/11/04 06:25:40;;;;;;;4.43;2.33;;;10.10;99.90;;;;;;5116832;28;20623;-83
2023/11/04 06:28:08;;;;;;;5.28;2.75;;;10.00;99.90;;;;;;5117878;28;20214;-79
2023/11/04 06:30:37;;;;;;;6.72;2.20;;;10.10;99.90;;;;;;5117621;28;20613;-83
2023/11/04 06:33:05;;;;;;;5.13;3.05;;;10.00;99.90;;;;;;5117783;28;20735;-79
2023/11/04 06:35:33;;;;;;;9.65;2.55;;;10.10;99.90;;;;;;5116722;28;20234;-83
2023/11/04 06:38:02;;;;;;;10.25;3.67;;;10.10;99.90;;;;;;5117932;28;20218;-79
2023/11/04 06:40:38;;;;;;;4.88;2.95;;;10.10;99.90;;;;;;5117353;28;20222;-78
2023/11/04 06:43:05;;;;;;;9.95;3.38;;;10.10;99.90;;;;;;5117819;28;20226;-80
2023/11/04 06:45:32;;;;;;;7.78;4.03;;;10.10;99.90;;;;;;5116019;28;20302;-79
2023/11/04 06:48:01;;;;;;;6.75;2.30;;;10.10;99.90;;;;;;5117935;28;20614;-79
2023/11/04 06:50:28;;;;;;;5.03;2.45;;;10.10;99.90;;;;;;5116736;28;20222;-79
2023/11/04 06:52:55;;;;;;;4.47;2.47;;;10.20;99.90;;;;;;5117446;28;20305;-80
2023/11/04 06:55:33;;;;;;;6.53;3.05;;;10.20;99.90;;;;;;5117402;28;20258;-80
2023/11/04 06:58:00;;;;;;;4.60;2.47;;;10.20;99.90;;;;;;5117482;28;20307;-83
2023/11/04 07:00:27;;;;;;;7.68;3.45;;;10.20;99.90;;;;;;5117595;28;20223;-80
2023/11/04 07:02:54;;;;;;;5.57;3.28;;;10.30;99.90;;;;;;5116820;28;20315;-83
2023/11/04 07:05:22;;;;;;;5.43;2.97;;;10.40;99.90;;;;;;5117727;28;20575;-80
2023/11/04 07:07:52;;;;;;;2.47;2.08;;;10.30;99.90;;;;;;5095928;28;20246;-80
2023/11/04 07:10:19;;;;;;;8.05;2.90;;;10.40;99.90;;;;;;5096040;28;20280;-80
2023/11/04 07:12:47;;;;;;;2.85;2.60;;;10.40;99.90;;;;;;5096854;28;20302;-83
2023/11/04 07:15:14;;;;;;;5.85;2.65;;;10.40;99.90;;;;;;5096570;28;20231;-79
2023/11/04 07:17:41;;;;;;;5.50;2.20;;;10.40;99.90;;;;;;5095383;28;20302;-83
2023/11/04 07:20:11;;;;;;;5.38;2.85;;;10.40;99.90;;;;;;5096044;28;20287;-83
2023/11/04 07:22:43;;;;;;;5.93;2.90;;;10.40;99.90;;;;;;5097477;28;20696;-83
2023/11/04 07:25:10;;;;;;;3.13;2.35;;;10.40;99.90;;;;;;5094620;28;20219;-80
2023/11/04 07:27:37;;;;;;;5.53;2.33;;;10.40;99.90;;;;;;5096967;28;20703;-80
2023/11/04 07:30:06;;;;;;;3.60;2.50;;;10.40;99.90;;;;;;5096066;28;20230;-83
2023/11/04 07:32:33;;;;;;;2.58;2.00;;;10.40;99.90;;;;;;5097659;28;20326;-83
2023/11/04 07:35:07;;;;;;;8.98;4.63;;;10.40;99.90;;;;;;5095962;28;20223;-83
2023/11/04 07:37:34;;;;;;;7.47;3.65;;;10.40;99.90;;;;;;5096407;28;20227;-83
2023/11/04 07:40:04;;;;;;;3.90;2.67;;;10.40;99.90;;;;;;5095991;28;20223;-80
2023/11/04 07:42:31;;;;;;;4.28;3.05;;;10.40;99.90;;;;;;5096586;28;20583;-79
2023/11/04 07:44:58;;;;;;;8.57;4.93;;;10.40;99.90;;;;;;5095312;28;20223;-80
2023/11/04 07:47:26;;;;;;;5.00;3.50;;;10.40;99.90;;;;;;5096678;28;20618;-83
2023/11/04 07:49:53;;;;;;;6.65;2.75;;;10.40;99.90;;;;;;5096327;28;20311;-83
2023/11/04 07:52:20;;;;;;;8.63;3.10;;;10.50;99.90;;;;;;5096252;28;20242;-83
2023/11/04 07:54:47;;;;;;;3.97;2.03;;;10.40;99.90;;;;;;5095720;28;20255;-82
2023/11/04 07:57:14;;;;;;;4.97;2.20;;;10.40;99.90;;;;;;5095734;28;20219;-83
2023/11/04 07:59:41;;;;;;;4.30;2.15;;;10.40;99.90;;;;;;5095046;28;20239;-83
2023/11/04 08:02:08;;;;;;;4.65;1.92;;;10.50;99.90;;;;;;5095181;28;20285;-83
2023/11/04 08:04:38;;;;;;;7.28;3.03;;;10.50;99.90;;;;;;5095473;28;20296;-83
2023/11/04 08:07:05;;;;;;;5.88;2.65;;;10.50;99.90;;;;;;5109072;28;20227;-80
2023/11/04 08:09:32;;;;;;;3.42;2.53;;;10.50;99.90;;;;;;5116340;28;20227;-80
2023/11/04 08:11:59;;;;;;;3.72;2.35;;;10.50;99.90;;;;;;5115595;28;20243;-83
2023/11/04 08:14:26;;;;;;;5.50;3.00;;;10.50;99.90;;;;;;5115967;28;20922;-83
2023/11/04 08:16:53;;;;;;;4.45;1.70;;;10.40;99.90;;;;;;5115248;28;20233;-82
2023/11/04 08:19:20;;;;;;;5.85;2.75;;;10.40;99.90;;;;;;5116026;28;20219;-83
2023/11/04 08:21:52;;;;;;;4.40;2.33;;;10.40;99.90;;;;;;5115366;28;20229;-83
2023/11/04 08:24:25;;;;;;;4.50;2.30;;;10.50;99.90;;;;;;5114412;28;20245;-80
2023/11/04 08:26:52;;;;;;;4.20;2.22;;;10.50;99.90;;;;;;5115186;28;20676;-80
2023/11/04 08:29:19;;;;;;;2.80;1.70;;;10.60;99.90;;;;;;5115161;28;20229;-83
2023/11/04 08:31:46;;;;;;;5.03;2.95;;;10.60;99.90;;;;;;5115711;28;20541;-83
2023/11/04 08:34:13;;;;;;;5.47;2.65;;;10.60;99.90;;;;;;5115485;28;20230;-83
2023/11/04 08:36:41;;;;;;;4.88;2.30;;;10.70;99.90;;;;;;5115445;28;20222;-83
2023/11/04 08:39:10;;;;;;;6.03;2.60;;;10.70;99.90;;;;;;5113811;28;20306;-84
2023/11/04 08:41:37;;;;;;;6.55;2.67;;;10.70;99.90;;;;;;5114765;28;20231;-82
2023/11/04 08:44:07;;;;;;;3.85;2.42;;;10.70;99.90;;;;;;5114321;28;20226;-83
2023/11/04 08:46:34;;;;;;;2.72;2.00;;;10.80;99.90;;;;;;5114225;28;20687;-82
2023/11/04 08:49:02;;;;;;;3.25;2.13;;;10.80;99.90;;;;;;5114150;28;20313;-82
2023/11/04 08:51:30;;;;;;;4.80;2.08;;;10.80;99.90;;;;;;5114276;28;20237;-83
2023/11/04 08:53:57;;;;;;;3.65;2.15;;;10.80;99.90;;;;;;5113862;28;20226;-83
2023/11/04 08:56:26;;;;;;;2.25;1.90;;;10.80;99.90;;;;;;5106369;28;20309;-83
2023/11/04 08:58:53;;;;;;;6.57;2.63;;;10.90;99.90;;;;;;5102766;28;20313;-80
2023/11/04 09:01:24;;;;;;;2.55;2.13;;;11.00;99.90;;;;;;5113549;28;20332;-80
2023/11/04 09:03:55;;;;;;;3.92;2.30;;;11.00;99.90;;;;;;5113567;28;20291;-80
2023/11/04 09:06:22;;;;;;;3.33;2.10;;;11.10;99.90;;;;;;5114248;28;20230;-80
2023/11/04 09:08:49;;;;;;;2.58;2.00;;;11.10;99.90;;;;;;5113261;28;20219;-79
2023/11/04 09:11:16;;;;;;;2.50;2.30;;;11.20;99.90;;;;;;5113383;28;20272;-82
2023/11/04 09:13:45;;;;;;;6.88;3.75;;;11.20;99.90;;;;;;5113769;28;20250;-84
2023/11/04 09:16:13;;;;;;;2.20;1.92;;;11.20;99.90;;;;;;5114024;28;20230;-80
2023/11/04 09:18:40;;;;;;;3.35;1.90;;;11.30;99.90;;;;;;5114425;28;20628;-83
2023/11/04 09:21:08;;;;;;;4.38;2.15;;;11.40;99.90;;;;;;5113256;28;20618;-82
2023/11/04 09:23:35;;;;;;;5.57;2.53;;;11.40;99.90;;;;;;5113775;28;20619;-80
2023/11/04 09:26:02;;;;;;;3.30;2.35;;;11.40;99.90;;;;;;5113509;28;20251;-80
2023/11/04 09:28:32;;;;;;;2.72;2.42;;;11.50;99.90;;;;;;5113894;28;20508;-83
2023/11/04 09:31:01;;;;;;;4.38;2.10;;;11.40;99.90;;;;;;5113834;28;20309;-83
2023/11/04 09:33:30;;;;;;;2.72;1.60;;;11.50;99.90;;;;;;5114174;28;20226;-80
2023/11/04 09:35:59;;;;;;;4.13;3.10;;;11.50;99.90;;;;;;5113449;28;20250;-83
2023/11/04 09:38:26;;;;;;;3.70;2.20;;;11.50;99.90;;;;;;5113717;28;20222;-82
2023/11/04 09:40:54;;;;;;;4.60;2.28;;;11.50;99.90;;;;;;5112435;28;20218;-82
2023/11/04 09:43:23;;;;;;;6.65;2.40;;;11.60;99.90;;;;;;5114206;28;20302;-83
2023/11/04 09:45:57;;;;;;;6.43;4.18;;;11.70;99.90;;;;;;5112815;28;20272;-83
2023/11/04 09:48:28;;;;;;;5.63;3.72;;;11.70;99.90;;;;;;5093224;28;20734;-84
2023/11/04 09:51:00;;;;;;;6.13;4.30;;;11.80;99.90;;;;;;5113890;28;20218;-83
2023/11/04 09:53:32;;;;;;;3.90;3.55;;;11.90;99.90;;;;;;5113740;28;20226;-83
2023/11/04 09:56:01;;;;;;;3.72;3.33;;;11.90;99.90;;;;;;5112986;28;20250;-83
2023/11/04 09:58:30;;;;;;;4.13;3.63;;;11.80;99.90;;;;;;5113855;28;20227;-82
2023/11/04 10:00:58;;;;;;;2.35;1.85;;;11.80;99.90;;;;;;5113181;28;20242;-83
2023/11/04 10:03:32;;;;;;;2.15;1.80;;;11.80;99.90;;;;;;5105536;28;20245;-83
2023/11/04 10:05:59;;;;;;;2.25;2.05;;;11.90;99.90;;;;;;5114001;28;20242;-83
2023/11/04 10:08:26;;;;;;;2.42;1.42;;;12.00;99.90;;;;;;5113872;28;20305;-80
2023/11/04 10:10:53;;;;;;;2.08;1.70;;;12.00;99.90;;;;;;5112946;28;20223;-83
2023/11/04 10:13:20;;;;;;;2.33;1.60;;;12.00;99.90;;;;;;5113799;28;20272;-82
2023/11/04 10:15:47;;;;;;;2.78;1.90;;;12.10;99.90;;;;;;5100901;28;20226;-82
2023/11/04 10:18:16;;;;;;;2.05;1.85;;;12.20;99.90;;;;;;5113069;28;20675;-83
2023/11/04 10:20:44;;;;;;;2.45;1.75;;;12.20;99.90;;;;;;5114027;28;20589;-83
2023/11/04 10:23:16;;;;;;;3.35;2.05;;;12.20;99.90;;;;;;5107187;28;20227;-82
2023/11/04 10:25:43;;;;;;;2.83;1.70;;;12.20;99.90;;;;;;5118456;28;20553;-83
2023/11/04 10:28:12;;;;;;;2.85;2.60;;;12.20;99.90;;;;;;5114019;28;20724;-79
2023/11/04 10:30:39;;;;;;;2.80;2.08;;;12.20;99.90;;;;;;5117279;28;20302;-79
2023/11/04 10:33:09;;;;;;;3.90;2.80;;;12.20;99.90;;;;;;5116893;28;20306;-82
2023/11/04 10:35:38;;;;;;;3.55;3.08;;;12.20;99.90;;;;;;5117355;28;20688;-83
2023/11/04 10:38:09;;;;;;;4.82;3.70;;;12.20;99.90;;;;;;5109112;28;20227;-83
2023/11/04 10:40:36;;;;;;;5.50;3.67;;;12.30;99.90;;;;;;5116966;28;20683;-79
2023/11/04 10:43:08;;;;;;;2.70;1.58;;;12.30;99.90;;;;;;5115620;28;20688;-83
2023/11/04 10:45:41;;;;;;;3.58;1.80;;;12.30;99.90;;;;;;5116741;28;20241;-82
2023/11/04 10:48:16;;;;;;;2.15;1.05;;;12.40;99.90;;;;;;5116232;28;20230;-83
2023/11/04 10:50:45;;;;;;;2.28;1.70;;;12.40;99.90;;;;;;5116861;28;20539;-83
2023/11/04 10:53:28;;;;;;;2.38;2.13;;;12.40;99.90;;;;;;5116105;28;20222;-79
2023/11/04 10:56:09;;;;;;;6.90;1.60;;;12.50;99.90;;;;;;5114313;28;20227;-79
2023/11/04 10:58:42;;;;;;;2.33;1.20;;;12.50;99.90;;;;;;5116262;28;20341;-80
2023/11/04 11:01:12;;;;;;;1.45;1.10;;;12.50;99.90;;;;;;5115902;28;20222;-80
2023/11/04 11:03:39;;;;;;;1.85;1.50;;;12.60;99.90;;;;;;5116485;28;20310;-83
2023/11/04 11:06:08;;;;;;;1.95;1.30;;;12.60;99.90;;;;;;5115977;28;20226;-80
2023/11/04 11:08:36;;;;;;;1.40;1.30;;;12.60;99.90;;;;;;5116246;28;20550;-79
2023/11/04 11:11:11;;;;;;;1.25;1.15;;;12.60;99.90;;;;;;5115940;28;20218;-79
2023/11/04 11:13:39;;;;;;;1.73;1.20;;;12.70;99.90;;;;;;5116353;28;20219;-79
2023/11/04 11:16:06;;;;;;;3.00;1.40;;;12.70;99.90;;;;;;5115699;28;20227;-83
2023/11/04 11:18:33;;;;;;;1.55;1.35;;;12.70;99.90;;;;;;5116777;28;20314;-79
2023/11/04 11:23:56;;;;;;;5.47;1.85;;;12.80;99.90;;;;;;5114025;28;20350;-79
2023/11/04 11:26:23;;;;;;;2.90;2.47;;;12.80;99.90;;;;;;5115355;28;20672;-79
2023/11/04 11:28:52;;;;;;;1.90;1.23;;;12.90;99.90;;;;;;5114741;28;20222;-79
2023/11/04 11:31:51;;;;;;;1.60;1.50;;;12.90;99.90;;;;;;5115214;28;20246;-79
2023/11/04 11:34:20;;;;;;;2.92;1.55;;;12.80;99.90;;;;;;5101940;28;20225;-83
2023/11/04 11:36:49;;;;;;;2.95;1.20;;;12.80;99.90;;;;;;5116049;28;20218;-81
2023/11/04 11:39:20;;;;;;;1.00;0.85;;;12.80;99.90;;;;;;5115230;28;20321;-79
2023/11/04 11:41:48;;;;;;;1.95;1.02;;;12.90;99.90;;;;;;5115243;28;20218;-79
2023/11/04 11:44:15;;;;;;;12.40;2.60;;;12.90;99.90;;;;;;5114796;28;20222;-80
2023/11/04 11:46:43;;;;;;;1.95;1.25;;;12.90;99.90;;;;;;5115656;28;20229;-80
2023/11/04 11:49:10;;;;;;;1.67;1.00;;;13.00;99.90;;;;;;5114752;28;20261;-79
2023/11/04 11:51:38;;;;;;;2.10;1.90;;;13.10;99.90;;;;;;5115544;28;20222;-80
2023/11/04 11:54:05;;;;;;;1.70;1.42;;;13.10;99.90;;;;;;5114899;28;20222;-79
2023/11/04 11:56:35;;;;;;;1.67;1.00;;;13.10;99.90;;;;;;5115221;28;20549;-79
2023/11/04 11:59:06;;;;;;;1.30;1.00;;;13.20;99.90;;;;;;5114534;28;20547;-83
2023/11/04 12:01:34;;;;;;;2.00;1.25;;;13.20;99.90;;;;;;5100089;28;20222;-83
2023/11/04 12:04:05;;;;;;;3.05;1.80;;;13.30;99.90;;;;;;5115196;28;20223;-83
2023/11/04 12:06:33;;;;;;;1.87;1.30;;;13.30;99.90;;;;;;5113881;28;20234;-83
2023/11/04 12:09:00;;;;;;;1.33;1.07;;;13.40;99.90;;;;;;5114946;28;20509;-83
2023/11/04 12:11:29;;;;;;;1.30;1.00;;;13.40;99.90;;;;;;5114442;28;21010;-80
2023/11/04 12:14:01;;;;;;;1.17;1.00;;;13.40;99.90;;;;;;5114255;28;20505;-79
2023/11/04 12:16:33;;;;;;;4.05;2.65;;;13.40;99.90;;;;;;5107444;28;20489;-83
2023/11/04 12:19:01;;;;;;;3.33;2.63;;;13.50;99.90;;;;;;5114635;28;20601;-83
2023/11/04 12:21:29;;;;;;;2.88;1.40;;;13.50;99.90;;;;;;5114696;28;20223;-84
2023/11/04 12:23:56;;;;;;;2.33;1.57;;;13.50;99.90;;;;;;5114451;28;20639;-83
2023/11/04 12:26:31;;;;;;;2.63;1.30;;;13.50;99.90;;;;;;5103462;28;20531;-79
2023/11/04 12:28:58;;;;;;;1.98;1.35;;;13.50;99.90;;;;;;5114368;28;20476;-79
2023/11/04 12:31:28;;;;;;;1.40;1.30;;;13.50;99.90;;;;;;5114976;28;20227;-83
2023/11/04 12:33:57;;;;;;;3.67;1.77;;;13.50;99.90;;;;;;5102512;28;20227;-84
2023/11/04 12:36:24;;;;;;;1.92;1.20;;;13.50;99.90;;;;;;5106051;28;20958;-84
2023/11/04 12:38:50;;;;;;;2.60;1.30;;;13.50;99.90;;;;;;5113488;28;20566;-84
2023/11/04 12:41:19;;;;;;;2.17;0.90;;;13.40;99.90;;;;;;5114568;28;20457;-84
2023/11/04 12:43:46;;;;;;;2.80;1.40;;;13.40;99.90;;;;;;5114216;28;20484;-84
2023/11/04 12:46:14;;;;;;;1.70;1.05;;;13.40;99.90;;;;;;5113806;28;20219;-84
2023/11/04 12:48:44;;;;;;;3.40;1.10;;;13.30;99.90;;;;;;5114543;28;20234;-83
2023/11/04 12:51:11;;;;;;;3.10;2.53;;;13.30;99.90;;;;;;5114135;28;20218;-84
2023/11/04 12:53:38;;;;;;;2.10;1.50;;;13.30;99.90;;;;;;5114329;28;20472;-84
2023/11/04 12:56:05;;;;;;;1.90;1.03;;;13.30;99.90;;;;;;5113629;28;20317;-83